createdAt,value
2022-11-19T00:02:17.988Z,8.77
2022-11-19T00:07:10.323Z,9.57
2022-11-19T00:12:20.834Z,10.30
2022-11-19T00:17:12.949Z,9.60
2022-11-19T00:22:07.695Z,9.93
2022-11-19T00:26:59.885Z,10.40
2022-11-19T00:31:52.050Z,9.80
2022-11-19T00:36:44.145Z,10.00
2022-11-19T00:41:36.284Z,10.33
2022-11-19T00:46:31.773Z,10.37
2022-11-19T00:51:26.088Z,10.80
2022-11-19T00:56:21.225Z,10.50
2022-11-19T01:01:15.351Z,10.03
2022-11-19T01:06:13.231Z,9.10
2022-11-19T01:11:14.185Z,10.87
2022-11-19T01:16:10.882Z,10.60
2022-11-19T01:21:04.573Z,10.27
2022-11-19T01:25:56.829Z,10.60
2022-11-19T01:30:48.957Z,9.10
2022-11-19T01:35:41.320Z,9.33
2022-11-19T01:40:34.059Z,9.43
2022-11-19T01:45:37.222Z,11.00
2022-11-19T01:50:33.240Z,9.43
2022-11-19T01:55:26.704Z,9.40
2022-11-19T02:05:59.358Z,9.43
2022-11-19T02:11:06.862Z,10.40
2022-11-19T02:16:11.703Z,10.53
2022-11-19T02:21:31.404Z,10.53
2022-11-19T02:27:15.278Z,10.67
2022-11-19T02:32:21.486Z,11.90
2022-11-19T02:37:37.299Z,11.43
2022-11-19T02:42:49.668Z,11.33
2022-11-19T02:47:48.044Z,11.73
2022-11-19T02:52:42.970Z,10.90
2022-11-19T02:57:36.456Z,11.43
2022-11-19T03:02:56.028Z,11.07
2022-11-19T03:07:48.986Z,11.23
2022-11-19T03:12:53.511Z,11.67
2022-11-19T03:17:52.242Z,19.73
2022-11-19T03:22:59.142Z,12.43
2022-11-19T03:27:55.755Z,12.53
2022-11-19T03:33:00.960Z,14.43
2022-11-19T03:37:57.513Z,13.57
2022-11-19T03:42:53.521Z,17.47
2022-11-19T03:47:48.951Z,13.83
2022-11-19T03:52:43.233Z,10.87
2022-11-19T03:57:35.382Z,10.20
2022-11-19T04:02:27.541Z,11.60
2022-11-19T04:07:22.258Z,11.13
2022-11-19T04:12:21.033Z,10.43
2022-11-19T04:17:13.662Z,10.87
2022-11-19T04:22:05.747Z,10.13
2022-11-19T04:26:58.066Z,11.27
2022-11-19T04:31:50.451Z,10.17
2022-11-19T04:36:42.709Z,9.80
2022-11-19T04:41:35.385Z,11.43
2022-11-19T04:46:27.496Z,12.63
2022-11-19T04:51:19.621Z,11.33
2022-11-19T04:56:11.760Z,10.83
2022-11-19T05:01:04.025Z,10.40
2022-11-19T05:05:56.251Z,10.70
2022-11-19T05:10:48.412Z,12.03
2022-11-19T05:15:40.564Z,10.90
2022-11-19T05:20:32.722Z,11.10
2022-11-19T05:25:24.960Z,13.77
2022-11-19T05:30:17.593Z,13.47
2022-11-19T05:35:10.036Z,14.10
2022-11-19T05:40:02.177Z,12.13
2022-11-19T05:44:54.320Z,11.50
2022-11-19T05:49:46.450Z,10.93
2022-11-19T05:54:38.654Z,10.47
2022-11-19T05:59:30.788Z,12.60
2022-11-19T06:04:22.902Z,16.37
2022-11-19T06:09:15.244Z,11.60
2022-11-19T06:14:07.474Z,12.20
2022-11-19T06:18:59.594Z,11.90
2022-11-19T06:23:51.695Z,12.73
2022-11-19T06:28:43.839Z,12.43
2022-11-19T06:33:35.925Z,12.23
2022-11-19T06:38:28.046Z,12.37
2022-11-19T06:43:20.162Z,12.30
2022-11-19T06:48:12.317Z,11.53
2022-11-19T06:53:04.425Z,12.93
2022-11-19T06:57:57.811Z,13.07
2022-11-19T07:02:49.908Z,12.63
2022-11-19T07:07:42.041Z,12.43
2022-11-19T07:12:34.503Z,18.53
2022-11-19T07:17:26.563Z,18.00
2022-11-19T07:22:18.650Z,23.60
2022-11-19T07:27:11.035Z,26.10
2022-11-19T07:32:03.071Z,19.43
2022-11-19T07:36:55.541Z,16.37
2022-11-19T07:42:06.048Z,18.50
2022-11-19T07:46:58.972Z,12.03
2022-11-19T07:51:51.225Z,8.57
2022-11-19T07:56:44.945Z,10.33
2022-11-19T08:01:37.732Z,9.03
2022-11-19T08:06:30.332Z,9.77
2022-11-19T08:11:23.342Z,14.00
2022-11-19T08:16:38.067Z,10.47
2022-11-19T08:21:30.231Z,10.30
2022-11-19T08:26:22.905Z,10.33
2022-11-19T08:31:14.984Z,10.00
2022-11-19T08:36:07.378Z,10.10
2022-11-19T08:41:18.066Z,10.60
2022-11-19T08:46:10.213Z,9.23
2022-11-19T08:51:07.089Z,9.50
2022-11-19T08:55:59.271Z,9.90
2022-11-19T09:00:51.843Z,9.43
2022-11-19T09:05:44.212Z,9.57
2022-11-19T09:10:37.909Z,9.73
2022-11-19T09:15:30.068Z,10.63
2022-11-19T09:20:22.245Z,11.27
2022-11-19T09:25:14.686Z,11.40
2022-11-19T09:30:07.737Z,11.53
2022-11-19T09:34:59.994Z,10.80
2022-11-19T09:39:52.153Z,11.13
2022-11-19T09:44:44.240Z,11.17
2022-11-19T09:49:59.691Z,11.80
2022-11-19T09:54:56.722Z,10.27
2022-11-19T09:59:52.156Z,11.53
2022-11-19T10:04:45.866Z,10.43
2022-11-19T10:10:06.466Z,10.90
2022-11-19T10:15:06.924Z,10.97
2022-11-19T10:20:23.035Z,11.80
2022-11-19T10:25:19.214Z,11.27
2022-11-19T10:30:17.509Z,12.20
2022-11-19T10:35:17.311Z,12.03
2022-11-19T10:40:18.728Z,11.87
2022-11-19T10:45:27.189Z,12.00
2022-11-19T10:50:24.036Z,10.83
2022-11-19T10:55:33.024Z,11.57
2022-11-19T11:00:25.552Z,12.17
2022-11-19T11:05:19.078Z,11.53
2022-11-19T11:10:36.515Z,10.97
2022-11-19T11:15:29.018Z,11.07
2022-11-19T11:20:27.392Z,10.50
2022-11-19T11:25:27.609Z,11.20
2022-11-19T11:30:20.050Z,10.03
2022-11-19T11:35:36.171Z,11.23
2022-11-19T11:40:31.875Z,6.60
2022-11-19T11:45:34.164Z,9.07
2022-11-19T11:50:28.515Z,7.90
2022-11-19T11:55:23.815Z,6.77
2022-11-19T12:00:38.491Z,6.43
2022-11-19T12:06:12.367Z,3.63
2022-11-19T12:11:24.870Z,5.13
2022-11-19T12:16:47.650Z,6.63
2022-11-19T12:22:00.090Z,7.17
2022-11-19T12:27:03.889Z,8.40
2022-11-19T12:32:14.097Z,7.83
2022-11-19T12:37:20.260Z,7.17
2022-11-19T12:42:12.349Z,7.50
2022-11-19T12:47:13.140Z,7.33
2022-11-19T12:52:35.128Z,7.17
2022-11-19T12:57:48.017Z,7.60
2022-11-19T13:03:08.043Z,6.87
2022-11-19T13:08:13.297Z,7.13
2022-11-19T13:13:11.170Z,7.27
2022-11-19T13:18:08.609Z,6.37
2022-11-19T13:23:05.557Z,5.40
2022-11-19T13:28:03.215Z,5.67
2022-11-19T13:33:10.458Z,5.27
2022-11-19T13:38:23.255Z,5.63
2022-11-19T13:43:40.933Z,5.80
2022-11-19T13:48:41.554Z,5.93
2022-11-19T13:53:42.385Z,6.93
2022-11-19T13:58:44.748Z,7.40
2022-11-19T14:03:50.307Z,7.87
2022-11-19T14:09:00.305Z,7.13
2022-11-19T14:14:38.447Z,7.93
2022-11-19T14:20:15.643Z,7.13
2022-11-19T14:25:40.532Z,6.73
2022-11-19T14:31:04.777Z,6.70
2022-11-19T14:36:24.207Z,7.27
2022-11-19T14:41:30.156Z,7.60
2022-11-19T14:46:29.604Z,8.40
2022-11-19T14:51:55.436Z,6.97
2022-11-19T14:57:03.783Z,7.63
2022-11-19T15:02:25.151Z,7.80
2022-11-19T15:07:55.929Z,6.90
2022-11-19T15:13:04.391Z,7.83
2022-11-19T15:18:07.134Z,7.87
2022-11-19T15:23:19.202Z,14.23
2022-11-19T15:28:41.130Z,15.60
2022-11-19T15:33:55.026Z,10.17
2022-11-19T15:39:09.196Z,9.73
2022-11-19T15:44:11.578Z,11.47
2022-11-19T15:49:26.654Z,8.90
2022-11-19T15:54:26.643Z,10.10
2022-11-19T15:59:20.889Z,12.87
2022-11-19T16:04:17.820Z,15.17
2022-11-19T16:09:19.190Z,11.90
2022-11-19T16:14:42.097Z,11.60
2022-11-19T16:19:35.882Z,11.10
2022-11-19T16:24:49.136Z,10.40
2022-11-19T16:29:48.378Z,10.97
2022-11-19T16:34:40.724Z,10.30
2022-11-19T16:39:34.081Z,11.47
2022-11-19T16:44:29.887Z,11.93
2022-11-19T16:49:46.529Z,14.70
2022-11-19T16:54:48.586Z,12.40
2022-11-19T16:59:40.980Z,13.90
2022-11-19T17:04:33.847Z,29.10
2022-11-19T17:09:47.946Z,22.43
2022-11-19T17:14:39.977Z,23.00
2022-11-19T17:19:36.240Z,16.67
2022-11-19T17:24:44.140Z,14.17
2022-11-19T17:29:39.414Z,12.37
2022-11-19T17:34:33.620Z,18.67
2022-11-19T17:39:26.049Z,14.93
2022-11-19T17:44:36.098Z,11.93
2022-11-19T17:49:28.297Z,10.07
2022-11-19T17:54:22.905Z,10.17
2022-11-19T17:59:15.211Z,9.87
2022-11-19T18:04:09.737Z,11.33
2022-11-19T18:09:02.297Z,12.00
2022-11-19T18:14:00.803Z,12.77
2022-11-19T18:18:53.303Z,23.83
2022-11-19T18:23:46.351Z,13.90
2022-11-19T18:28:43.750Z,15.33
2022-11-19T18:33:39.094Z,15.23
2022-11-19T18:38:33.557Z,15.17
2022-11-19T18:43:44.744Z,24.73
2022-11-19T18:48:37.996Z,22.63
2022-11-19T18:53:30.112Z,19.37
2022-11-19T18:58:22.298Z,15.47
2022-11-19T19:03:16.228Z,16.47
2022-11-19T19:08:09.542Z,16.03
2022-11-19T19:13:01.602Z,15.47
2022-11-19T19:17:53.767Z,15.47
2022-11-19T19:22:45.890Z,15.90
2022-11-19T19:27:38.006Z,40.17
2022-11-19T19:32:32.861Z,20.67
2022-11-19T19:37:24.994Z,18.20
2022-11-19T19:42:17.506Z,17.47
2022-11-19T19:47:15.406Z,16.57
2022-11-19T19:52:07.578Z,15.83
2022-11-19T19:56:59.668Z,38.40
2022-11-19T20:01:53.255Z,35.47
2022-11-19T20:06:47.231Z,33.97
2022-11-19T20:11:39.664Z,38.17
2022-11-19T20:16:32.989Z,37.67
2022-11-19T20:21:31.661Z,39.27
2022-11-19T20:26:28.326Z,30.60
2022-11-19T20:31:23.740Z,20.57
2022-11-19T20:36:18.451Z,20.33
2022-11-19T20:41:31.939Z,20.27
2022-11-19T20:46:24.144Z,19.43
2022-11-19T20:51:16.446Z,19.47
2022-11-19T20:56:08.924Z,21.07
2022-11-19T21:01:03.664Z,21.43
2022-11-19T21:05:58.914Z,22.53
2022-11-19T21:11:06.242Z,20.67
2022-11-19T21:15:59.376Z,20.47
2022-11-19T21:20:52.344Z,20.87
2022-11-19T21:25:44.519Z,19.87
2022-11-19T21:30:36.770Z,19.57
2022-11-19T21:35:29.589Z,20.93
2022-11-19T21:40:22.676Z,21.80
2022-11-19T21:45:15.881Z,21.33
2022-11-19T21:50:09.490Z,25.07
2022-11-19T21:55:04.809Z,21.10
2022-11-19T21:59:56.957Z,21.90
2022-11-19T22:04:49.094Z,20.70
2022-11-19T22:09:41.218Z,24.60
2022-11-19T22:14:33.386Z,55.27
2022-11-19T22:19:25.442Z,56.60
2022-11-19T22:24:18.248Z,53.37
2022-11-19T22:29:10.479Z,56.27
2022-11-19T22:34:02.733Z,37.57
2022-11-19T22:38:54.826Z,22.03
2022-11-19T22:43:47.584Z,21.63
2022-11-19T22:48:43.090Z,20.23
2022-11-19T22:53:36.922Z,18.80
2022-11-19T22:58:29.684Z,22.50
2022-11-19T23:03:23.060Z,20.50
2022-11-19T23:08:15.227Z,27.40
2022-11-19T23:13:28.258Z,20.87
2022-11-19T23:18:20.348Z,20.47
2022-11-19T23:23:12.519Z,23.80
2022-11-19T23:28:04.820Z,21.73
2022-11-19T23:32:56.976Z,23.73
2022-11-19T23:37:49.078Z,17.67
2022-11-19T23:42:41.180Z,20.43
2022-11-19T23:47:37.145Z,18.83
2022-11-19T23:52:29.285Z,26.50
2022-11-19T23:57:21.444Z,39.13
